Terminal Aerodrome Forecast
Issued by NWS

Home | Current Version | Previous Version | Text Only | Print | Product List | Glossary On
Versions: 1 2 3 4 5 6 7 8 9 10 11 12 13 14 15 16 17 18 19 20 21 22 23 24 25 26 27 28 29 30 31 32 33 34 35 36 37 38 39 40 41 42 43 44 45
000
FTUS43 KGLD 231556 AAA
TAFMCK
TAF AMD
KMCK 231556Z 2316/2412 15013KT 2SM BR VCTS OVC003CB
     FM231800 13015G23KT P6SM VCTS OVC013CB
     FM232200 12016G24KT P6SM VCTS OVC003CB=

USA.gov is the U.S. government's official web portal to all federal, state and local government web resources and services.